createdAt,value
2023-06-23T00:01:34.897Z,56.90
2023-06-23T00:11:33.932Z,52.92
2023-06-23T00:21:32.874Z,45.57
2023-06-23T00:31:32.334Z,50.49
2023-06-23T00:41:30.988Z,29.93
2023-06-23T00:51:30.782Z,34.31
2023-06-23T01:01:31.793Z,32.70
2023-06-23T01:11:30.948Z,28.11
2023-06-23T01:21:29.902Z,30.61
2023-06-23T01:31:31.400Z,28.52
2023-06-23T01:41:30.112Z,34.11
2023-06-23T01:51:28.918Z,25.62
2023-06-23T02:01:27.997Z,25.15
2023-06-23T02:11:28.892Z,35.80
2023-06-23T02:21:27.957Z,21.10
2023-06-23T02:31:26.986Z,28.11
2023-06-23T02:41:26.582Z,17.06
2023-06-23T02:51:26.058Z,17.46
2023-06-23T03:01:28.677Z,27.57
2023-06-23T03:11:28.020Z,24.94
2023-06-23T03:21:26.964Z,14.70
2023-06-23T03:31:26.033Z,13.95
2023-06-23T03:41:25.006Z,21.03
2023-06-23T03:51:24.024Z,18.00
2023-06-23T04:01:23.977Z,29.93
2023-06-23T04:11:23.028Z,28.18
2023-06-23T04:21:22.005Z,41.32
2023-06-23T04:31:21.058Z,32.76
2023-06-23T04:41:20.136Z,41.80
2023-06-23T04:51:19.062Z,23.33
2023-06-23T05:01:18.091Z,26.16
2023-06-23T05:11:17.057Z,41.19
2023-06-23T05:21:16.051Z,35.59
2023-06-23T05:31:15.089Z,49.95
2023-06-23T05:41:14.057Z,47.05
2023-06-23T05:51:13.050Z,39.30
2023-06-23T06:01:12.112Z,36.67
2023-06-23T06:11:11.288Z,50.63
2023-06-23T06:21:10.160Z,46.31
2023-06-23T06:31:09.206Z,37.55
2023-06-23T06:41:08.142Z,44.43
2023-06-23T06:51:07.191Z,30.00
2023-06-23T07:01:07.084Z,33.30
2023-06-23T07:11:06.147Z,26.09
2023-06-23T07:21:05.603Z,20.49
2023-06-23T07:31:04.220Z,14.83
2023-06-23T07:41:03.555Z,18.20
2023-06-23T07:51:02.954Z,20.29
2023-06-23T08:01:02.156Z,16.58
2023-06-23T08:11:01.168Z,16.25
2023-06-23T08:21:00.306Z,24.47
2023-06-23T08:30:59.303Z,15.51
2023-06-23T08:40:58.399Z,18.54
2023-06-23T08:50:57.226Z,13.55
2023-06-23T09:00:56.542Z,13.21
2023-06-23T09:10:55.264Z,23.46
2023-06-23T09:20:54.225Z,18.81
2023-06-23T09:30:53.262Z,13.21
2023-06-23T09:40:52.257Z,8.36
2023-06-23T09:50:51.294Z,11.46
2023-06-23T10:00:50.251Z,38.09
2023-06-23T10:10:49.282Z,4.79
2023-06-23T10:20:48.394Z,7.28
2023-06-23T10:30:47.346Z,7.35
2023-06-23T10:40:46.279Z,9.98
2023-06-23T10:50:45.299Z,28.67
2023-06-23T11:00:44.336Z,12.11
2023-06-23T11:10:43.307Z,15.54
2023-06-23T11:20:42.654Z,9.83
2023-06-23T11:30:41.347Z,4.79
2023-06-23T11:40:40.343Z,15.84
2023-06-23T11:50:39.471Z,9.68
2023-06-23T12:00:38.351Z,6.80
2023-06-23T12:10:37.779Z,6.63
2023-06-23T12:20:37.380Z,17.70
2023-06-23T12:30:36.358Z,41.95
2023-06-23T12:40:35.402Z,4.16
2023-06-23T12:50:38.230Z,10.67
2023-06-23T13:00:37.086Z,17.04
2023-06-23T13:10:36.539Z,4.92
2023-06-23T13:20:35.628Z,6.86
2023-06-23T13:30:34.405Z,13.86
2023-06-23T13:40:33.414Z,8.14
2023-06-23T13:50:32.416Z,5.54
2023-06-23T14:00:32.630Z,5.96
2023-06-23T14:10:31.445Z,25.24
2023-06-23T14:20:30.505Z,4.97
2023-06-23T14:30:29.415Z,9.03
2023-06-23T14:40:28.484Z,6.36
2023-06-23T14:50:27.450Z,31.31
2023-06-23T15:00:26.466Z,26.48
2023-06-23T15:10:25.500Z,13.53
2023-06-23T15:20:24.470Z,28.20
2023-06-23T15:30:23.467Z,6.62
2023-06-23T15:40:22.536Z,18.72
2023-06-23T15:50:21.535Z,12.86
2023-06-23T16:00:22.412Z,26.75
2023-06-23T16:10:21.579Z,26.28
2023-06-23T16:20:20.513Z,7.87
2023-06-23T16:30:19.575Z,10.95
2023-06-23T16:40:18.558Z,6.66
2023-06-23T16:50:17.647Z,8.64
2023-06-23T17:00:16.536Z,6.67
2023-06-23T17:10:15.974Z,6.52
2023-06-23T17:20:14.564Z,3.53
2023-06-23T17:30:15.451Z,7.65
2023-06-23T17:40:15.303Z,4.84
2023-06-23T17:50:14.610Z,4.31
2023-06-23T18:00:13.612Z,8.05
2023-06-23T18:10:12.625Z,8.84
2023-06-23T18:20:11.628Z,5.86
2023-06-23T18:30:10.609Z,11.25
2023-06-23T18:40:09.626Z,13.20
2023-06-23T18:50:08.651Z,27.53
2023-06-23T19:00:08.922Z,11.27
2023-06-23T19:10:07.699Z,7.46
2023-06-23T19:20:06.648Z,14.23
2023-06-23T19:30:05.676Z,13.32
2023-06-23T19:40:04.738Z,11.41
2023-06-23T19:50:03.743Z,9.89
2023-06-23T20:00:02.752Z,5.98
2023-06-23T20:10:01.713Z,5.92
2023-06-23T20:20:00.669Z,7.75
2023-06-23T20:30:00.498Z,7.28
2023-06-23T20:39:59.711Z,12.13
2023-06-23T20:49:58.745Z,14.22
2023-06-23T20:59:57.717Z,9.64
2023-06-23T21:09:56.766Z,4.58
2023-06-23T21:19:56.037Z,5.73
2023-06-23T21:29:54.756Z,5.06
2023-06-23T21:39:53.853Z,6.67
2023-06-23T21:49:52.773Z,5.26
2023-06-23T21:59:51.738Z,4.92
2023-06-23T22:09:50.811Z,5.66
2023-06-23T22:19:49.814Z,8.83
2023-06-23T22:29:48.790Z,6.81
2023-06-23T22:39:47.823Z,9.37
2023-06-23T22:49:46.805Z,4.31
2023-06-23T22:59:45.902Z,6.00
2023-06-23T23:09:44.850Z,5.73
2023-06-23T23:19:43.906Z,5.86
2023-06-23T23:29:42.812Z,7.01
2023-06-23T23:39:41.826Z,7.48
2023-06-23T23:49:40.817Z,7.95
2023-06-23T23:59:39.844Z,9.71
